Time;durP1;ratioP1;P1;durP2;ratioP2;P2;SDS_P1;SDS_P2;PMS_P1;PMS_P2;Temp;Humidity;BMP_temperature;BMP_pressure;BME280_temperature;BME280_humidity;BME280_pressure;Samples;Min_cycle;Max_cycle;Signal;HPM_P1;HPM_P2
2021/06/19 00:00:13;;;;;;;6.53;2.80;;;;;;;;;;5072717;28;20094;-59
2021/06/19 00:02:41;;;;;;;4.50;2.60;;;;;;;;;;5076747;28;20045;-60
2021/06/19 00:05:08;;;;;;;5.97;2.90;;;;;;;;;;5076561;28;20047;-60
2021/06/19 00:07:36;;;;;;;4.60;2.50;;;;;;;;;;5075572;28;20322;-59
2021/06/19 00:10:03;;;;;;;4.63;2.40;;;;;;;;;;5078650;28;20048;-59
2021/06/19 00:12:30;;;;;;;5.82;2.58;;;;;;;;;;5084608;28;20044;-59
2021/06/19 00:14:58;;;;;;;6.20;2.53;;;;;;;;;;5077221;28;20637;-60
2021/06/19 00:17:25;;;;;;;5.38;2.30;;;;;;;;;;5083649;28;20045;-59
2021/06/19 00:19:51;;;;;;;5.17;2.30;;;;;;;;;;5078357;28;20044;-59
2021/06/19 00:22:19;;;;;;;5.53;2.45;;;;;;;;;;5080601;28;20040;-59
2021/06/19 00:24:47;;;;;;;5.57;2.22;;;;;;;;;;5081128;28;20044;-59
2021/06/19 00:27:14;;;;;;;5.10;2.00;;;;;;;;;;5084522;28;20060;-59
2021/06/19 00:29:41;;;;;;;4.95;2.08;;;;;;;;;;5080440;28;20045;-59
2021/06/19 00:32:07;;;;;;;5.47;2.17;;;;;;;;;;5083027;28;20070;-59
2021/06/19 00:34:35;;;;;;;3.92;2.00;;;;;;;;;;5081497;28;20048;-59
2021/06/19 00:37:02;;;;;;;5.40;2.55;;;;;;;;;;5080604;28;20501;-59
2021/06/19 00:39:28;;;;;;;3.33;1.80;;;;;;;;;;5081081;28;20086;-59
2021/06/19 00:41:55;;;;;;;3.45;1.83;;;;;;;;;;5079523;28;20054;-60
2021/06/19 00:44:22;;;;;;;4.10;1.92;;;;;;;;;;5087867;28;20029;-60
2021/06/19 00:46:55;;;;;;;4.50;2.28;;;;;;;;;;5083484;28;20048;-59
2021/06/19 00:49:24;;;;;;;4.80;2.78;;;;;;;;;;5082251;28;20044;-59
2021/06/19 00:51:51;;;;;;;12.18;4.55;;;;;;;;;;5083250;28;20487;-59
2021/06/19 00:54:18;;;;;;;7.95;4.50;;;;;;;;;;5087171;28;20085;-59
2021/06/19 00:56:46;;;;;;;8.60;4.20;;;;;;;;;;5087466;28;20048;-60
2021/06/19 00:59:13;;;;;;;5.75;3.25;;;;;;;;;;5085491;28;20071;-59
2021/06/19 01:01:40;;;;;;;7.75;3.85;;;;;;;;;;5084070;28;20045;-59
2021/06/19 01:04:13;;;;;;;8.93;3.75;;;;;;;;;;5087577;28;20113;-59
2021/06/19 01:06:40;;;;;;;7.23;4.03;;;;;;;;;;5082641;28;20518;-59
2021/06/19 01:09:08;;;;;;;7.05;3.58;;;;;;;;;;5080799;28;20772;-59
2021/06/19 01:11:36;;;;;;;5.72;3.50;;;;;;;;;;5086027;28;20040;-59
2021/06/19 01:14:04;;;;;;;7.40;3.60;;;;;;;;;;5080261;28;20049;-59
2021/06/19 01:16:31;;;;;;;7.88;3.63;;;;;;;;;;5091048;28;20509;-60
2021/06/19 01:19:00;;;;;;;5.53;3.28;;;;;;;;;;5081495;28;20063;-59
2021/06/19 01:21:29;;;;;;;6.53;3.58;;;;;;;;;;5084949;28;20059;-59
2021/06/19 01:23:57;;;;;;;5.47;3.15;;;;;;;;;;5082514;28;20135;-59
2021/06/19 01:26:25;;;;;;;5.38;2.58;;;;;;;;;;5086048;28;20056;-59
2021/06/19 01:28:53;;;;;;;5.70;2.40;;;;;;;;;;5086631;28;20524;-59
2021/06/19 01:31:20;;;;;;;5.43;2.30;;;;;;;;;;5088634;28;20029;-59
2021/06/19 01:33:48;;;;;;;5.57;2.50;;;;;;;;;;5081141;28;20102;-59
2021/06/19 01:36:16;;;;;;;2.83;2.00;;;;;;;;;;5084177;28;20071;-59
2021/06/19 01:38:44;;;;;;;4.40;2.25;;;;;;;;;;5083487;28;20399;-60
2021/06/19 01:41:12;;;;;;;4.72;2.10;;;;;;;;;;5077768;28;20040;-59
2021/06/19 01:43:39;;;;;;;3.60;1.73;;;;;;;;;;5085294;28;20042;-59
2021/06/19 01:46:06;;;;;;;7.75;1.77;;;;;;;;;;5088160;28;20085;-59
2021/06/19 01:48:33;;;;;;;;;;;;;;;;;;5082926;28;20384;-59
2021/06/19 01:51:00;;;;;;;4.63;1.85;;;;;;;;;;5079698;28;20015;-59
2021/06/19 01:53:27;;;;;;;6.10;1.70;;;;;;;;;;5087235;28;20047;-59
2021/06/19 01:55:54;;;;;;;4.22;1.73;;;;;;;;;;5075613;28;20041;-59
2021/06/19 01:58:20;;;;;;;2.07;1.70;;;;;;;;;;5064443;28;20054;-59
2021/06/19 02:00:48;;;;;;;1.63;1.38;;;;;;;;;;5082711;28;20062;-60
2021/06/19 02:03:14;;;;;;;3.00;1.83;;;;;;;;;;5088559;28;20380;-59
2021/06/19 02:05:41;;;;;;;1.77;1.52;;;;;;;;;;5083663;28;20542;-59
2021/06/19 02:08:10;;;;;;;1.52;1.27;;;;;;;;;;5083935;28;20040;-59
2021/06/19 02:10:39;;;;;;;1.75;1.58;;;;;;;;;;5084739;28;20048;-59
2021/06/19 02:13:07;;;;;;;2.60;1.80;;;;;;;;;;5080884;28;20048;-59
2021/06/19 02:15:37;;;;;;;;;;;;;;;;;;5087393;28;20112;-59
2021/06/19 02:18:04;;;;;;;3.60;1.40;;;;;;;;;;5085478;28;19971;-59
2021/06/19 02:20:32;;;;;;;4.75;1.58;;;;;;;;;;5069393;28;20047;-59
2021/06/19 02:22:58;;;;;;;3.77;1.80;;;;;;;;;;5077112;28;20048;-59
2021/06/19 02:25:27;;;;;;;1.60;1.50;;;;;;;;;;5079592;28;20396;-60
2021/06/19 02:27:55;;;;;;;2.35;1.65;;;;;;;;;;5078739;28;20039;-59
2021/06/19 02:30:23;;;;;;;3.40;1.73;;;;;;;;;;5082080;28;20039;-59
2021/06/19 02:32:51;;;;;;;2.80;1.70;;;;;;;;;;5085820;28;20047;-59
2021/06/19 02:35:18;;;;;;;4.70;2.17;;;;;;;;;;5083390;28;20559;-59
2021/06/19 02:37:46;;;;;;;3.08;1.98;;;;;;;;;;5086718;28;20040;-59
2021/06/19 02:40:13;;;;;;;2.50;1.77;;;;;;;;;;5087824;28;20047;-59
2021/06/19 02:42:41;;;;;;;3.75;2.03;;;;;;;;;;5085305;28;20044;-59
2021/06/19 02:45:11;;;;;;;3.70;1.83;;;;;;;;;;5084402;28;20075;-59
2021/06/19 02:47:48;;;;;;;2.55;1.75;;;;;;;;;;5077342;28;20298;-59
2021/06/19 02:50:16;;;;;;;4.33;2.00;;;;;;;;;;5081098;28;20055;-59
2021/06/19 02:52:43;;;;;;;2.38;2.10;;;;;;;;;;5080222;28;20036;-59
2021/06/19 02:55:12;;;;;;;3.65;2.22;;;;;;;;;;5082385;28;20496;-60
2021/06/19 02:57:39;;;;;;;2.72;1.98;;;;;;;;;;5086445;28;20519;-59
2021/06/19 03:00:06;;;;;;;;;;;;;;;;;;5083748;28;20059;-59
2021/06/19 03:02:33;;;;;;;3.88;2.20;;;;;;;;;;5083492;28;19920;-59
2021/06/19 03:05:00;;;;;;;;;;;;;;;;;;5086748;28;20040;-59
2021/06/19 03:07:27;;;;;;;6.15;2.10;;;;;;;;;;5086371;28;19920;-59
2021/06/19 03:09:54;;;;;;;3.60;2.17;;;;;;;;;;5085177;28;20040;-59
2021/06/19 03:12:20;;;;;;;2.45;2.00;;;;;;;;;;5080901;28;20395;-59
2021/06/19 03:14:49;;;;;;;3.60;2.17;;;;;;;;;;5081687;28;20040;-59
2021/06/19 03:17:16;;;;;;;5.53;2.20;;;;;;;;;;5078969;28;20070;-59
2021/06/19 03:19:42;;;;;;;3.33;2.42;;;;;;;;;;5087286;28;20064;-59
2021/06/19 03:22:09;;;;;;;2.58;2.20;;;;;;;;;;5077082;28;20044;-59
2021/06/19 03:24:43;;;;;;;3.05;2.17;;;;;;;;;;5081945;28;20127;-60
2021/06/19 03:27:11;;;;;;;3.17;2.30;;;;;;;;;;5078191;28;20044;-59
2021/06/19 03:29:39;;;;;;;2.90;2.33;;;;;;;;;;5081331;28;20079;-59
2021/06/19 03:32:06;;;;;;;4.95;2.22;;;;;;;;;;5081298;28;20040;-59
2021/06/19 03:34:33;;;;;;;3.88;2.60;;;;;;;;;;5083042;28;20125;-59
2021/06/19 03:37:00;;;;;;;6.07;2.30;;;;;;;;;;5077494;28;20165;-59
2021/06/19 03:39:28;;;;;;;4.60;2.50;;;;;;;;;;5082911;28;20094;-59
2021/06/19 03:41:55;;;;;;;5.70;2.75;;;;;;;;;;5079871;28;20052;-59
2021/06/19 03:44:22;;;;;;;;;;;;;;;;;;5081899;28;20051;-59
2021/06/19 03:46:49;;;;;;;4.38;2.60;;;;;;;;;;5080398;28;19942;-59
2021/06/19 03:49:18;;;;;;;3.63;2.38;;;;;;;;;;5085068;28;20043;-59
2021/06/19 03:51:46;;;;;;;4.88;3.05;;;;;;;;;;5081347;28;20484;-59
2021/06/19 03:54:12;;;;;;;3.10;2.35;;;;;;;;;;5078525;28;20048;-59
2021/06/19 03:56:40;;;;;;;6.22;2.50;;;;;;;;;;5086640;28;20067;-59
2021/06/19 03:59:08;;;;;;;3.33;2.30;;;;;;;;;;5082981;28;20094;-59
2021/06/19 04:01:34;;;;;;;4.78;2.50;;;;;;;;;;5086977;28;20036;-60
2021/06/19 04:04:01;;;;;;;3.15;2.25;;;;;;;;;;5077290;28;20054;-59
2021/06/19 04:06:28;;;;;;;3.05;2.60;;;;;;;;;;5082490;28;20079;-59
2021/06/19 04:08:55;;;;;;;5.18;2.50;;;;;;;;;;5079662;28;20036;-59
2021/06/19 04:11:22;;;;;;;3.25;2.70;;;;;;;;;;5079614;28;20037;-59
2021/06/19 04:13:49;;;;;;;5.80;2.60;;;;;;;;;;5080619;28;20048;-59
2021/06/19 04:16:15;;;;;;;3.93;2.60;;;;;;;;;;5081831;28;20131;-59
2021/06/19 04:18:43;;;;;;;3.17;2.72;;;;;;;;;;5081314;28;20083;-59
2021/06/19 04:21:10;;;;;;;4.83;2.63;;;;;;;;;;5086749;28;20044;-59
2021/06/19 04:23:36;;;;;;;3.50;2.47;;;;;;;;;;5083981;28;20044;-59
2021/06/19 04:26:03;;;;;;;4.82;2.70;;;;;;;;;;5084159;28;20052;-59
2021/06/19 04:28:31;;;;;;;3.63;3.00;;;;;;;;;;5086799;28;20048;-59
2021/06/19 04:31:01;;;;;;;3.08;2.50;;;;;;;;;;5077964;28;20044;-59
2021/06/19 04:33:35;;;;;;;4.05;3.45;;;;;;;;;;5081334;28;20049;-60
2021/06/19 04:36:02;;;;;;;3.72;3.30;;;;;;;;;;5082662;28;20048;-59
2021/06/19 04:38:30;;;;;;;4.60;3.33;;;;;;;;;;5084373;28;20044;-59
2021/06/19 04:41:09;;;;;;;3.63;3.05;;;;;;;;;;5079332;28;20048;-59
2021/06/19 04:46:12;;;;;;;4.13;3.33;;;;;;;;;;5088891;28;20039;-59
2021/06/19 04:48:39;;;;;;;6.43;3.30;;;;;;;;;;5089866;28;20055;-60
2021/06/19 04:51:06;;;;;;;5.20;3.88;;;;;;;;;;5084692;28;20127;-59
2021/06/19 04:53:32;;;;;;;6.78;3.58;;;;;;;;;;5085281;28;20609;-59
2021/06/19 04:56:02;;;;;;;6.95;3.60;;;;;;;;;;5084248;28;20048;-59
2021/06/19 04:58:29;;;;;;;5.43;4.10;;;;;;;;;;5089237;28;20086;-59
2021/06/19 05:00:56;;;;;;;5.28;4.13;;;;;;;;;;5080080;28;20062;-58
2021/06/19 05:03:23;;;;;;;5.72;4.68;;;;;;;;;;5082920;28;20051;-59
2021/06/19 05:05:51;;;;;;;6.10;5.38;;;;;;;;;;5076233;28;20040;-59
2021/06/19 05:08:18;;;;;;;9.82;5.30;;;;;;;;;;5083266;28;20098;-58
2021/06/19 05:10:46;;;;;;;6.13;5.00;;;;;;;;;;5083983;28;20576;-57
2021/06/19 05:13:12;;;;;;;8.18;5.95;;;;;;;;;;5082450;28;20049;-57
2021/06/19 05:15:39;;;;;;;7.40;5.72;;;;;;;;;;5082115;28;20068;-57
2021/06/19 05:18:06;;;;;;;11.17;6.00;;;;;;;;;;5066567;28;20040;-57
2021/06/19 05:20:32;;;;;;;8.02;5.90;;;;;;;;;;5082744;28;20309;-57
2021/06/19 05:22:59;;;;;;;10.35;5.70;;;;;;;;;;5084708;28;20071;-56
2021/06/19 05:25:27;;;;;;;7.10;5.78;;;;;;;;;;5078204;28;20048;-53
2021/06/19 05:27:54;;;;;;;9.50;6.97;;;;;;;;;;5079125;28;20040;-56
2021/06/19 05:30:20;;;;;;;10.45;6.28;;;;;;;;;;5079758;28;20082;-54
2021/06/19 05:32:47;;;;;;;10.50;7.32;;;;;;;;;;5081000;28;20431;-56
2021/06/19 05:35:14;;;;;;;12.27;7.38;;;;;;;;;;5081703;28;20059;-55
2021/06/19 05:37:40;;;;;;;13.87;7.30;;;;;;;;;;5079163;28;20102;-56
2021/06/19 05:40:08;;;;;;;10.57;7.18;;;;;;;;;;5079243;28;20044;-56
2021/06/19 05:42:34;;;;;;;10.38;6.65;;;;;;;;;;5078303;28;20590;-54
2021/06/19 05:45:01;;;;;;;9.73;7.60;;;;;;;;;;5081877;28;20060;-55
2021/06/19 05:47:29;;;;;;;9.15;7.80;;;;;;;;;;5083021;28;20105;-55
2021/06/19 05:49:56;;;;;;;7.80;7.10;;;;;;;;;;5058611;28;20054;-55
2021/06/19 05:52:25;;;;;;;8.13;6.95;;;;;;;;;;5081394;28;20047;-54
2021/06/19 05:54:52;;;;;;;9.93;8.05;;;;;;;;;;5089923;28;20542;-54
2021/06/19 05:57:19;;;;;;;13.55;8.25;;;;;;;;;;5082065;28;20032;-55
2021/06/19 05:59:46;;;;;;;15.05;7.43;;;;;;;;;;5082863;28;20073;-57
2021/06/19 06:02:12;;;;;;;10.05;8.20;;;;;;;;;;5085664;28;20044;-57
2021/06/19 06:04:44;;;;;;;10.75;8.20;;;;;;;;;;5085311;28;20028;-57
2021/06/19 06:07:11;;;;;;;8.40;6.97;;;;;;;;;;5082489;28;20063;-57
2021/06/19 06:09:38;;;;;;;8.90;7.72;;;;;;;;;;5087015;28;20040;-57
2021/06/19 06:12:08;;;;;;;10.23;8.23;;;;;;;;;;5077125;28;20058;-58
2021/06/19 06:14:35;;;;;;;8.80;7.93;;;;;;;;;;5081668;28;20537;-56
2021/06/19 06:17:02;;;;;;;11.10;8.02;;;;;;;;;;5081682;28;20040;-58
2021/06/19 06:19:30;;;;;;;9.63;8.07;;;;;;;;;;5069085;28;20071;-58
2021/06/19 06:21:56;;;;;;;13.30;8.07;;;;;;;;;;5082750;28;20394;-58
2021/06/19 06:24:24;;;;;;;10.00;8.65;;;;;;;;;;5083079;28;20101;-58
2021/06/19 06:26:51;;;;;;;10.77;8.82;;;;;;;;;;5084150;28;20044;-58
2021/06/19 06:29:17;;;;;;;9.73;8.73;;;;;;;;;;5084688;28;20055;-58
2021/06/19 06:31:51;;;;;;;9.38;8.35;;;;;;;;;;5080836;28;20155;-58
2021/06/19 06:34:19;;;;;;;10.43;8.27;;;;;;;;;;5084337;28;20040;-58
2021/06/19 06:36:46;;;;;;;;;;;;;;;;;;5089740;28;20064;-58
2021/06/19 06:39:13;;;;;;;9.68;8.45;;;;;;;;;;5086333;28;19924;-58
2021/06/19 06:41:39;;;;;;;10.48;9.38;;;;;;;;;;5083241;28;20157;-59
2021/06/19 06:44:07;;;;;;;8.95;8.15;;;;;;;;;;5066671;28;20127;-59
2021/06/19 06:46:34;;;;;;;10.50;8.57;;;;;;;;;;5067662;28;20066;-59
2021/06/19 06:49:01;;;;;;;10.73;8.93;;;;;;;;;;5080590;28;20088;-59
2021/06/19 06:51:29;;;;;;;9.93;8.93;;;;;;;;;;5082904;28;20055;-59
2021/06/19 06:53:56;;;;;;;11.98;8.65;;;;;;;;;;5082731;28;20049;-59
2021/06/19 06:56:23;;;;;;;11.75;9.27;;;;;;;;;;5078491;28;20044;-59
2021/06/19 06:58:50;;;;;;;10.15;8.48;;;;;;;;;;5086994;28;20044;-59
2021/06/19 07:01:17;;;;;;;10.35;8.95;;;;;;;;;;5080830;28;20085;-58
2021/06/19 07:03:43;;;;;;;16.42;9.27;;;;;;;;;;5071686;28;20046;-59
2021/06/19 07:06:12;;;;;;;11.38;10.10;;;;;;;;;;5083698;28;20421;-59
2021/06/19 07:08:39;;;;;;;15.33;9.40;;;;;;;;;;5083654;28;20036;-59
2021/06/19 07:11:07;;;;;;;10.77;9.20;;;;;;;;;;5080779;28;20044;-59
2021/06/19 07:13:34;;;;;;;12.50;9.07;;;;;;;;;;5076917;28;20488;-59
2021/06/19 07:16:02;;;;;;;14.52;9.77;;;;;;;;;;5082488;28;20336;-59
2021/06/19 07:18:28;;;;;;;10.77;9.67;;;;;;;;;;5085796;28;20054;-59
2021/06/19 07:20:55;;;;;;;10.32;9.18;;;;;;;;;;5082907;28;20071;-59
2021/06/19 07:23:23;;;;;;;13.47;9.97;;;;;;;;;;5082282;28;20039;-59
2021/06/19 07:25:49;;;;;;;;;;;;;;;;;;5081655;28;20056;-59
2021/06/19 07:28:16;;;;;;;10.38;9.32;;;;;;;;;;5079955;28;19925;-59
2021/06/19 07:30:42;;;;;;;13.37;9.73;;;;;;;;;;5023312;28;20650;-59
2021/06/19 07:33:10;;;;;;;10.20;9.15;;;;;;;;;;5018907;28;20107;-59
2021/06/19 07:35:36;;;;;;;12.77;9.20;;;;;;;;;;5020057;28;20049;-60
2021/06/19 07:38:03;;;;;;;12.10;8.83;;;;;;;;;;5028175;28;20055;-60
2021/06/19 07:40:31;;;;;;;10.65;9.18;;;;;;;;;;5014649;28;20069;-59
2021/06/19 07:42:59;;;;;;;9.63;8.73;;;;;;;;;;5019678;28;20508;-60
2021/06/19 07:45:25;;;;;;;11.43;8.93;;;;;;;;;;5024093;28;20114;-60
2021/06/19 07:47:52;;;;;;;9.87;8.83;;;;;;;;;;5024537;28;20400;-60
2021/06/19 07:50:18;;;;;;;12.75;8.70;;;;;;;;;;5025821;28;20652;-60
2021/06/19 07:52:45;;;;;;;;;;;;;;;;;;5020715;28;20551;-60
2021/06/19 07:55:13;;;;;;;12.68;8.77;;;;;;;;;;5024017;28;20015;-60
2021/06/19 07:57:39;;;;;;;10.52;8.75;;;;;;;;;;5013013;28;20056;-60
2021/06/19 08:00:06;;;;;;;10.32;8.90;;;;;;;;;;5032446;28;20183;-60
2021/06/19 08:02:33;;;;;;;14.13;8.75;;;;;;;;;;5029559;28;20131;-60
2021/06/19 08:05:00;;;;;;;10.40;8.90;;;;;;;;;;5021572;28;20497;-60
2021/06/19 08:07:27;;;;;;;12.20;8.88;;;;;;;;;;5024804;28;20641;-60
2021/06/19 08:09:55;;;;;;;11.98;9.07;;;;;;;;;;5022810;28;20550;-60
2021/06/19 08:12:22;;;;;;;10.82;8.60;;;;;;;;;;5025234;28;20520;-60
2021/06/19 08:14:49;;;;;;;9.77;8.75;;;;;;;;;;5025892;28;20037;-60
2021/06/19 08:17:24;;;;;;;12.82;8.70;;;;;;;;;;5025791;28;20049;-60
2021/06/19 08:19:51;;;;;;;11.02;8.75;;;;;;;;;;5023819;28;20053;-60
2021/06/19 08:22:19;;;;;;;10.10;9.00;;;;;;;;;;5023040;28;20053;-60
2021/06/19 08:24:47;;;;;;;11.95;9.25;;;;;;;;;;5027797;28;20049;-60
2021/06/19 08:27:14;;;;;;;9.75;8.75;;;;;;;;;;5004115;28;20037;-60
2021/06/19 08:29:41;;;;;;;11.25;9.00;;;;;;;;;;5028801;28;20045;-60
2021/06/19 08:32:08;;;;;;;15.00;8.68;;;;;;;;;;5028187;28;20564;-60
2021/06/19 08:34:35;;;;;;;12.38;9.32;;;;;;;;;;5030332;28;20041;-60
2021/06/19 08:37:02;;;;;;;10.23;9.20;;;;;;;;;;5024757;28;20044;-60
2021/06/19 08:39:29;;;;;;;10.30;9.05;;;;;;;;;;5019593;28;20053;-60
2021/06/19 08:41:56;;;;;;;12.38;9.05;;;;;;;;;;5020023;28;20052;-60
2021/06/19 08:44:23;;;;;;;10.10;8.50;;;;;;;;;;5025562;28;20038;-60
2021/06/19 08:47:03;;;;;;;10.90;9.13;;;;;;;;;;5029069;28;20475;-62
2021/06/19 08:49:29;;;;;;;13.63;8.98;;;;;;;;;;5028135;28;20468;-60
2021/06/19 08:51:58;;;;;;;10.32;8.65;;;;;;;;;;5026201;28;20083;-60
2021/06/19 08:54:25;;;;;;;12.32;8.32;;;;;;;;;;5026193;28;20204;-60
2021/06/19 08:56:53;;;;;;;14.40;8.52;;;;;;;;;;5026681;28;20046;-60
2021/06/19 08:59:21;;;;;;;9.15;8.35;;;;;;;;;;5031227;28;20049;-60
2021/06/19 09:01:48;;;;;;;9.10;8.25;;;;;;;;;;5032269;28;20413;-60
2021/06/19 09:04:15;;;;;;;11.05;7.78;;;;;;;;;;5026234;28;20045;-60
2021/06/19 09:06:46;;;;;;;11.75;8.18;;;;;;;;;;5006485;28;20124;-60
2021/06/19 09:09:14;;;;;;;13.07;8.00;;;;;;;;;;5023007;28;20374;-60
2021/06/19 09:11:42;;;;;;;10.15;7.85;;;;;;;;;;5026568;28;20076;-60
2021/06/19 09:14:12;;;;;;;10.25;8.60;;;;;;;;;;5026298;28;20046;-60
2021/06/19 09:16:43;;;;;;;14.80;8.18;;;;;;;;;;5025743;28;20547;-60
2021/06/19 09:19:23;;;;;;;9.55;7.63;;;;;;;;;;5025092;28;20137;-60
2021/06/19 09:22:09;;;;;;;14.73;8.35;;;;;;;;;;5021086;28;20042;-60
2021/06/19 09:24:40;;;;;;;13.27;8.05;;;;;;;;;;5023596;28;20063;-61
2021/06/19 09:27:25;;;;;;;10.52;8.63;;;;;;;;;;5024366;28;20057;-60
2021/06/19 09:30:04;;;;;;;9.50;7.95;;;;;;;;;;5026636;28;20396;-60
2021/06/19 09:32:30;;;;;;;15.85;8.38;;;;;;;;;;5021354;28;20076;-60
2021/06/19 09:35:10;;;;;;;13.63;8.90;;;;;;;;;;5025734;28;20040;-60
2021/06/19 09:37:38;;;;;;;10.57;8.35;;;;;;;;;;5025594;28;20045;-60
2021/06/19 09:40:04;;;;;;;;;;;;;;;;;;5027242;28;20042;-60
2021/06/19 09:42:37;;;;;;;9.55;8.57;;;;;;;;;;5023039;28;20403;-60
2021/06/19 09:45:07;;;;;;;15.00;8.70;;;;;;;;;;5025334;28;20045;-60
2021/06/19 09:47:41;;;;;;;12.73;9.13;;;;;;;;;;5023224;28;20073;-60
2021/06/19 09:50:09;;;;;;;13.95;8.90;;;;;;;;;;5023129;28;20516;-60
2021/06/19 09:52:36;;;;;;;11.32;8.75;;;;;;;;;;5021474;28;20696;-60
2021/06/19 09:55:09;;;;;;;13.98;8.95;;;;;;;;;;5026321;28;20056;-60
2021/06/19 09:57:37;;;;;;;12.95;9.15;;;;;;;;;;5026043;28;20030;-61
2021/06/19 10:00:04;;;;;;;11.93;8.60;;;;;;;;;;5026880;28;20045;-60
2021/06/19 10:02:30;;;;;;;11.90;8.82;;;;;;;;;;5029340;28;20137;-60
2021/06/19 10:04:57;;;;;;;10.13;8.55;;;;;;;;;;5028731;28;20045;-60
2021/06/19 10:07:24;;;;;;;11.95;8.45;;;;;;;;;;5030449;28;20124;-60
2021/06/19 10:09:52;;;;;;;9.38;8.48;;;;;;;;;;5028804;28;20045;-58
2021/06/19 10:12:19;;;;;;;;;;;;;;;;;;5017890;28;20046;-58
2021/06/19 10:14:48;;;;;;;10.38;9.20;;;;;;;;;;5024868;28;19921;-59
2021/06/19 10:17:17;;;;;;;10.85;9.77;;;;;;;;;;5023802;28;20064;-58
2021/06/19 10:19:44;;;;;;;17.45;10.00;;;;;;;;;;5023944;28;20040;-59
2021/06/19 10:22:14;;;;;;;14.82;10.80;;;;;;;;;;5022653;28;20050;-58
2021/06/19 10:24:43;;;;;;;12.00;10.00;;;;;;;;;;5023486;28;20045;-59
2021/06/19 10:27:14;;;;;;;10.55;9.55;;;;;;;;;;5010603;28;20475;-58
2021/06/19 10:29:41;;;;;;;14.18;10.05;;;;;;;;;;5018752;28;20041;-58
2021/06/19 10:32:08;;;;;;;11.60;10.40;;;;;;;;;;5020956;28;20040;-59
2021/06/19 10:34:37;;;;;;;12.82;10.52;;;;;;;;;;5017844;28;20050;-58
2021/06/19 10:37:05;;;;;;;11.85;10.65;;;;;;;;;;5022440;28;20052;-60
2021/06/19 10:39:37;;;;;;;12.15;10.43;;;;;;;;;;4999828;28;20139;-60
2021/06/19 10:42:21;;;;;;;11.70;10.38;;;;;;;;;;5019202;28;20045;-61
2021/06/19 10:44:55;;;;;;;12.57;10.68;;;;;;;;;;5020899;28;20042;-60
2021/06/19 10:47:23;;;;;;;12.20;10.80;;;;;;;;;;5029630;28;20555;-60
2021/06/19 10:49:51;;;;;;;12.93;11.25;;;;;;;;;;5030807;28;20046;-60
2021/06/19 10:52:31;;;;;;;12.27;11.07;;;;;;;;;;5027463;28;20077;-60
2021/06/19 10:55:09;;;;;;;15.52;11.35;;;;;;;;;;5024710;28;20069;-60
2021/06/19 10:57:49;;;;;;;13.38;11.40;;;;;;;;;;5046498;28;20100;-61
2021/06/19 11:00:23;;;;;;;12.32;11.00;;;;;;;;;;5024845;28;20117;-60
2021/06/19 11:02:51;;;;;;;12.25;11.07;;;;;;;;;;5022190;28;20069;-60
2021/06/19 11:05:50;;;;;;;16.85;11.45;;;;;;;;;;5026460;28;20044;-60
2021/06/19 11:08:18;;;;;;;12.23;11.02;;;;;;;;;;4989958;28;20500;-60
2021/06/19 11:10:45;;;;;;;11.32;10.13;;;;;;;;;;5027540;28;20048;-60
2021/06/19 11:13:30;;;;;;;12.70;10.98;;;;;;;;;;5022742;28;20107;-60
2021/06/19 11:16:03;;;;;;;12.00;10.65;;;;;;;;;;5024657;28;20049;-60
2021/06/19 11:18:47;;;;;;;12.30;11.10;;;;;;;;;;5029919;28;20308;-60
2021/06/19 11:21:16;;;;;;;16.00;10.93;;;;;;;;;;5035139;28;20064;-60
2021/06/19 11:24:00;;;;;;;14.35;11.15;;;;;;;;;;5022757;28;20420;-60
2021/06/19 11:26:51;;;;;;;12.13;10.80;;;;;;;;;;5023311;28;20061;-60
2021/06/19 11:29:36;;;;;;;11.95;10.65;;;;;;;;;;5018481;28;20052;-60
2021/06/19 11:32:22;;;;;;;12.05;10.27;;;;;;;;;;5027263;28;20107;-60
2021/06/19 11:34:52;;;;;;;10.10;8.98;;;;;;;;;;5023696;28;20053;-60
2021/06/19 11:37:19;;;;;;;13.90;9.38;;;;;;;;;;5026332;28;20056;-60
2021/06/19 11:39:47;;;;;;;14.15;8.95;;;;;;;;;;5030238;28;20057;-60
2021/06/19 11:42:14;;;;;;;11.85;8.63;;;;;;;;;;5026956;28;20048;-60
2021/06/19 11:44:43;;;;;;;13.52;8.93;;;;;;;;;;5023635;28;20056;-60
2021/06/19 11:47:10;;;;;;;12.32;8.30;;;;;;;;;;5025139;28;20048;-60
2021/06/19 11:49:37;;;;;;;9.40;8.15;;;;;;;;;;5015885;28;20034;-60
2021/06/19 11:52:05;;;;;;;13.82;8.32;;;;;;;;;;5023694;28;20061;-60
2021/06/19 11:54:32;;;;;;;9.07;8.18;;;;;;;;;;5026450;28;20674;-60
2021/06/19 11:56:58;;;;;;;10.70;7.90;;;;;;;;;;5028529;28;20065;-60
2021/06/19 11:59:27;;;;;;;9.30;8.40;;;;;;;;;;5025714;28;20133;-60
2021/06/19 12:01:53;;;;;;;12.88;8.90;;;;;;;;;;5031182;28;20041;-60
2021/06/19 12:04:27;;;;;;;16.98;8.73;;;;;;;;;;5027754;28;20512;-60
2021/06/19 12:07:03;;;;;;;8.38;7.57;;;;;;;;;;5026073;28;20077;-60
2021/06/19 12:09:34;;;;;;;8.73;7.82;;;;;;;;;;5023649;28;20052;-60
2021/06/19 12:12:05;;;;;;;8.55;7.47;;;;;;;;;;5019384;28;20070;-60
2021/06/19 12:14:36;;;;;;;9.50;8.50;;;;;;;;;;5024835;28;20042;-60
2021/06/19 12:17:05;;;;;;;11.02;8.40;;;;;;;;;;5012250;28;20056;-60
2021/06/19 12:19:33;;;;;;;11.88;7.57;;;;;;;;;;5028849;28;20041;-60
2021/06/19 12:22:04;;;;;;;10.18;8.02;;;;;;;;;;5019962;28;20104;-60
2021/06/19 12:24:35;;;;;;;10.27;7.43;;;;;;;;;;5020845;28;20111;-60
2021/06/19 12:27:01;;;;;;;9.48;7.93;;;;;;;;;;5019538;28;20054;-60
2021/06/19 12:29:32;;;;;;;10.27;7.68;;;;;;;;;;5023264;28;20440;-60
2021/06/19 12:31:59;;;;;;;10.55;7.65;;;;;;;;;;5019558;28;20672;-60
2021/06/19 12:34:27;;;;;;;9.32;7.72;;;;;;;;;;5023275;28;20042;-60
2021/06/19 12:36:56;;;;;;;11.02;7.93;;;;;;;;;;5023120;28;20108;-60
2021/06/19 12:39:23;;;;;;;14.70;8.07;;;;;;;;;;5025326;28;20117;-60
2021/06/19 12:41:49;;;;;;;11.40;7.55;;;;;;;;;;5026659;28;20058;-60
2021/06/19 12:44:16;;;;;;;7.72;6.93;;;;;;;;;;5030349;28;20062;-60
2021/06/19 12:46:49;;;;;;;12.02;7.63;;;;;;;;;;5026498;28;20091;-60
2021/06/19 12:49:15;;;;;;;10.88;7.20;;;;;;;;;;5030147;28;20042;-60
2021/06/19 12:51:43;;;;;;;16.95;8.50;;;;;;;;;;5018624;28;20049;-60
2021/06/19 12:54:16;;;;;;;12.00;8.15;;;;;;;;;;5026872;28;20042;-60
2021/06/19 12:56:48;;;;;;;9.60;7.53;;;;;;;;;;5021884;28;20513;-60
2021/06/19 12:59:17;;;;;;;17.38;8.07;;;;;;;;;;5027760;28;20069;-60
2021/06/19 13:01:44;;;;;;;13.30;8.38;;;;;;;;;;5023580;28;20038;-60
2021/06/19 13:04:11;;;;;;;13.63;8.95;;;;;;;;;;5020892;28;20096;-60
2021/06/19 13:06:42;;;;;;;9.35;7.80;;;;;;;;;;5021255;28;20046;-60
2021/06/19 13:09:10;;;;;;;10.15;7.93;;;;;;;;;;5024557;28;20050;-60
2021/06/19 13:11:38;;;;;;;16.55;8.13;;;;;;;;;;5030255;28;20048;-60
2021/06/19 13:14:08;;;;;;;9.85;8.45;;;;;;;;;;5026647;28;20056;-60
2021/06/19 13:16:39;;;;;;;13.23;8.43;;;;;;;;;;5025275;28;20409;-60
2021/06/19 13:19:09;;;;;;;9.98;8.48;;;;;;;;;;5024637;28;20034;-60
2021/06/19 13:21:38;;;;;;;14.95;8.82;;;;;;;;;;5026605;28;20480;-61
2021/06/19 13:24:25;;;;;;;14.98;8.60;;;;;;;;;;5024955;28;20056;-60
2021/06/19 13:26:53;;;;;;;10.27;8.98;;;;;;;;;;5031497;28;20041;-60
2021/06/19 13:29:21;;;;;;;10.85;8.43;;;;;;;;;;5030845;28;20038;-60
2021/06/19 13:31:48;;;;;;;10.38;8.07;;;;;;;;;;5028229;28;20076;-61
2021/06/19 13:34:22;;;;;;;13.88;8.68;;;;;;;;;;5028505;28;20042;-60
2021/06/19 13:36:49;;;;;;;13.25;8.63;;;;;;;;;;5028967;28;20045;-60
2021/06/19 13:39:17;;;;;;;12.07;8.43;;;;;;;;;;5027478;28;20029;-60
2021/06/19 13:41:46;;;;;;;17.17;10.00;;;;;;;;;;5026988;28;20054;-60
2021/06/19 13:44:14;;;;;;;11.48;8.70;;;;;;;;;;5027922;28;20047;-60
2021/06/19 13:46:43;;;;;;;13.77;8.30;;;;;;;;;;5029123;28;20084;-60
2021/06/19 13:49:11;;;;;;;10.70;8.70;;;;;;;;;;5031090;28;20534;-60
2021/06/19 13:51:38;;;;;;;12.02;9.18;;;;;;;;;;5023998;28;20065;-60
2021/06/19 13:54:06;;;;;;;10.27;8.45;;;;;;;;;;5021240;28;20037;-60
2021/06/19 13:56:34;;;;;;;11.70;8.52;;;;;;;;;;5024281;28;20087;-60
2021/06/19 13:59:00;;;;;;;9.25;6.43;;;;;;;;;;5027172;28;20050;-61
2021/06/19 14:01:29;;;;;;;11.88;5.05;;;;;;;;;;5026891;28;20434;-61
2021/06/19 14:03:56;;;;;;;8.77;4.57;;;;;;;;;;5024393;28;20145;-60
2021/06/19 14:06:22;;;;;;;10.30;4.55;;;;;;;;;;5022870;28;20034;-60
2021/06/19 14:08:50;;;;;;;9.73;4.65;;;;;;;;;;5003982;28;20049;-60
2021/06/19 14:11:22;;;;;;;8.82;4.82;;;;;;;;;;5021500;28;20102;-60
2021/06/19 14:13:49;;;;;;;8.27;4.32;;;;;;;;;;5025343;28;20560;-60
2021/06/19 14:16:17;;;;;;;8.50;4.55;;;;;;;;;;5026479;28;20408;-60
2021/06/19 14:18:44;;;;;;;7.75;4.70;;;;;;;;;;5022395;28;20096;-60
2021/06/19 14:21:13;;;;;;;6.75;4.10;;;;;;;;;;5026239;28;20050;-60
2021/06/19 14:23:41;;;;;;;7.15;4.10;;;;;;;;;;5025032;28;20041;-60
2021/06/19 14:26:11;;;;;;;6.30;4.35;;;;;;;;;;5025909;28;20046;-60
2021/06/19 14:28:38;;;;;;;9.50;4.00;;;;;;;;;;5023590;28;20042;-60
2021/06/19 14:31:06;;;;;;;11.02;4.25;;;;;;;;;;5024591;28;20112;-60
2021/06/19 14:33:33;;;;;;;9.15;4.22;;;;;;;;;;5027176;28;20030;-60
2021/06/19 14:35:59;;;;;;;6.03;3.38;;;;;;;;;;5028052;28;20072;-60
2021/06/19 14:38:26;;;;;;;7.82;3.40;;;;;;;;;;5023811;28;20038;-60
2021/06/19 14:40:53;;;;;;;7.95;3.10;;;;;;;;;;5021186;28;20103;-60
2021/06/19 14:43:19;;;;;;;10.20;3.95;;;;;;;;;;5028774;28;20493;-60
2021/06/19 14:45:48;;;;;;;8.75;3.63;;;;;;;;;;5028464;28;20517;-61
2021/06/19 14:48:16;;;;;;;14.35;3.88;;;;;;;;;;5027100;28;20059;-61